createdAt,value
2022-10-22T00:01:14.247Z,11.52
2022-10-22T00:03:42.771Z,11.52
2022-10-22T00:06:11.444Z,11.50
2022-10-22T00:08:40.121Z,11.48
2022-10-22T00:11:14.751Z,11.47
2022-10-22T00:13:43.830Z,11.46
2022-10-22T00:16:12.651Z,11.46
2022-10-22T00:18:41.544Z,11.46
2022-10-22T00:21:10.248Z,11.46
2022-10-22T00:23:43.372Z,11.45
2022-10-22T00:26:12.731Z,11.45
2022-10-22T00:28:41.465Z,11.46
2022-10-22T00:31:09.979Z,11.46
2022-10-22T00:33:38.267Z,11.45
2022-10-22T00:36:06.630Z,11.45
2022-10-22T00:38:36.621Z,11.43
2022-10-22T00:41:05.106Z,11.42
2022-10-22T00:43:33.652Z,11.40
2022-10-22T00:46:02.173Z,11.39
2022-10-22T00:48:37.383Z,11.38
2022-10-22T00:51:09.430Z,11.32
2022-10-22T00:53:42.703Z,11.25
2022-10-22T00:56:12.549Z,11.17
2022-10-22T00:58:45.826Z,11.04
2022-10-22T01:01:25.868Z,10.88
2022-10-22T01:03:55.156Z,10.76
2022-10-22T01:06:31.327Z,10.70
2022-10-22T01:09:34.737Z,10.67
2022-10-22T01:12:12.577Z,10.62
2022-10-22T01:15:00.343Z,10.58
2022-10-22T01:17:31.190Z,10.57
2022-10-22T01:20:08.237Z,10.54
2022-10-22T01:23:04.942Z,10.52
2022-10-22T01:25:39.244Z,10.47
2022-10-22T01:28:38.395Z,10.44
2022-10-22T01:31:09.237Z,10.42
2022-10-22T01:33:38.752Z,10.40
2022-10-22T01:36:07.995Z,10.36
2022-10-22T01:38:37.241Z,10.33
2022-10-22T01:41:05.939Z,10.30
2022-10-22T01:43:34.263Z,10.27
2022-10-22T01:46:05.663Z,10.25
2022-10-22T01:48:50.428Z,10.23
2022-10-22T01:51:40.115Z,10.24
2022-10-22T01:54:15.243Z,10.22
2022-10-22T01:57:01.862Z,10.16
2022-10-22T01:59:30.032Z,10.07
2022-10-22T02:02:01.017Z,10.02
2022-10-22T02:04:44.092Z,9.98
2022-10-22T02:07:16.762Z,9.98
2022-10-22T02:09:47.384Z,9.97
2022-10-22T02:12:16.242Z,9.99
2022-10-22T02:14:46.494Z,9.98
2022-10-22T02:17:19.960Z,9.96
2022-10-22T02:19:51.295Z,9.97
2022-10-22T02:22:20.227Z,9.95
2022-10-22T02:24:50.423Z,9.94
2022-10-22T02:27:27.221Z,9.92
2022-10-22T02:32:46.550Z,9.91
2022-10-22T02:35:18.504Z,9.91
2022-10-22T02:37:47.937Z,9.92
2022-10-22T02:40:16.832Z,9.93
2022-10-22T02:42:48.071Z,9.93
2022-10-22T02:45:17.481Z,9.91
2022-10-22T02:47:46.457Z,9.88
2022-10-22T02:50:15.008Z,9.86
2022-10-22T02:52:43.329Z,9.85
2022-10-22T02:55:11.711Z,9.84
2022-10-22T02:57:40.191Z,9.81
2022-10-22T03:00:10.385Z,9.78
2022-10-22T03:02:39.372Z,9.75
2022-10-22T03:05:08.567Z,9.73
2022-10-22T03:07:37.523Z,9.69
2022-10-22T03:10:06.712Z,9.68
2022-10-22T03:12:34.938Z,9.67
2022-10-22T03:15:03.119Z,9.67
2022-10-22T03:17:31.424Z,9.67
2022-10-22T03:19:59.702Z,9.69
2022-10-22T03:22:34.246Z,9.68
2022-10-22T03:25:08.941Z,9.67
2022-10-22T03:27:38.916Z,9.68
2022-10-22T03:30:08.549Z,9.68
2022-10-22T03:32:36.789Z,9.69
2022-10-22T03:35:06.533Z,9.70
2022-10-22T03:37:35.788Z,9.73
2022-10-22T03:40:07.202Z,9.75
2022-10-22T03:42:35.876Z,9.78
2022-10-22T03:45:04.227Z,9.82
2022-10-22T03:47:32.536Z,9.83
2022-10-22T03:50:00.872Z,9.84
2022-10-22T03:52:29.227Z,9.85
2022-10-22T03:54:57.492Z,9.86
2022-10-22T03:57:26.500Z,9.87
2022-10-22T03:59:54.705Z,9.89
2022-10-22T04:02:23.058Z,9.88
2022-10-22T04:04:51.422Z,9.90
2022-10-22T04:07:19.899Z,9.91
2022-10-22T04:09:48.169Z,9.94
2022-10-22T04:12:16.449Z,9.94
2022-10-22T04:14:44.683Z,9.94
2022-10-22T04:17:13.023Z,9.94
2022-10-22T04:19:41.244Z,9.95
2022-10-22T04:22:09.471Z,9.99
2022-10-22T04:24:38.345Z,10.02
2022-10-22T04:27:06.778Z,10.03
2022-10-22T04:29:35.007Z,10.03
2022-10-22T04:32:03.122Z,10.03
2022-10-22T04:34:31.578Z,10.03
2022-10-22T04:37:00.454Z,10.04
2022-10-22T04:39:28.982Z,10.06
2022-10-22T04:41:57.345Z,10.08
2022-10-22T04:44:25.703Z,10.10
2022-10-22T04:46:54.213Z,10.11
2022-10-22T04:49:22.445Z,10.11
2022-10-22T04:51:50.741Z,10.11
2022-10-22T04:54:19.024Z,10.10
2022-10-22T04:56:47.336Z,10.12
2022-10-22T04:59:15.644Z,10.14
2022-10-22T05:01:45.723Z,10.16
2022-10-22T05:04:16.636Z,10.18
2022-10-22T05:06:45.631Z,10.21
2022-10-22T05:09:19.926Z,10.21
2022-10-22T05:11:51.208Z,10.21
2022-10-22T05:14:24.616Z,10.23
2022-10-22T05:16:53.549Z,10.24
2022-10-22T05:19:26.709Z,10.25
2022-10-22T05:21:57.335Z,10.26
2022-10-22T05:24:26.340Z,10.28
2022-10-22T05:26:56.359Z,10.29
2022-10-22T05:29:25.582Z,10.29
2022-10-22T05:31:54.410Z,10.30
2022-10-22T05:34:22.854Z,10.30
2022-10-22T05:36:52.218Z,10.33
2022-10-22T05:39:20.721Z,10.34
2022-10-22T05:41:48.985Z,10.34
2022-10-22T05:44:17.261Z,10.35
2022-10-22T05:46:45.554Z,10.36
2022-10-22T05:49:16.299Z,10.38
2022-10-22T05:51:45.054Z,10.38
2022-10-22T05:54:19.444Z,10.39
2022-10-22T05:56:48.352Z,10.40
2022-10-22T05:59:17.321Z,10.42
2022-10-22T06:01:45.780Z,10.43
2022-10-22T06:04:14.970Z,10.45
2022-10-22T06:06:48.897Z,10.45
2022-10-22T06:09:23.198Z,10.45
2022-10-22T06:11:52.590Z,10.43
2022-10-22T06:14:21.994Z,10.44
2022-10-22T06:16:51.850Z,10.44
2022-10-22T06:19:22.768Z,10.44
2022-10-22T06:21:51.168Z,10.43
2022-10-22T06:24:19.347Z,10.44
2022-10-22T06:26:51.903Z,10.45
2022-10-22T06:29:20.661Z,10.45
2022-10-22T06:31:49.321Z,10.45
2022-10-22T06:34:19.906Z,10.45
2022-10-22T06:36:48.925Z,10.43
2022-10-22T06:39:18.699Z,10.41
2022-10-22T06:41:47.903Z,10.38
2022-10-22T06:44:20.736Z,10.41
2022-10-22T06:46:55.230Z,10.43
2022-10-22T06:49:23.510Z,10.44
2022-10-22T06:51:54.033Z,10.44
2022-10-22T06:54:23.628Z,10.43
2022-10-22T06:56:51.877Z,10.43
2022-10-22T07:03:43.986Z,10.49
2022-10-22T07:06:15.131Z,10.46
2022-10-22T07:08:44.196Z,10.42
2022-10-22T07:11:18.215Z,10.42
2022-10-22T07:13:47.441Z,10.42
2022-10-22T07:16:16.516Z,10.42
2022-10-22T07:18:45.546Z,10.42
2022-10-22T07:21:16.150Z,10.42
2022-10-22T07:23:44.593Z,10.42
2022-10-22T07:26:18.272Z,10.41
2022-10-22T07:28:46.537Z,10.39
2022-10-22T07:31:17.007Z,10.38
2022-10-22T07:33:46.006Z,10.36
2022-10-22T07:36:18.679Z,10.35
2022-10-22T07:38:49.811Z,10.33
2022-10-22T07:41:18.809Z,10.32
2022-10-22T07:43:47.241Z,10.31
2022-10-22T07:46:15.742Z,10.31
2022-10-22T07:48:44.092Z,10.32
2022-10-22T07:51:12.627Z,10.30
2022-10-22T07:53:41.538Z,10.29
2022-10-22T07:56:09.872Z,10.26
2022-10-22T07:58:38.534Z,10.25
2022-10-22T08:01:07.668Z,10.24
2022-10-22T08:03:36.875Z,10.22
2022-10-22T08:06:05.711Z,10.17
2022-10-22T08:08:34.471Z,10.13
2022-10-22T08:11:03.692Z,10.09
2022-10-22T08:13:32.121Z,10.05
2022-10-22T08:16:02.428Z,10.01
2022-10-22T08:18:31.363Z,9.97
2022-10-22T08:21:00.354Z,9.93
2022-10-22T08:23:29.949Z,9.89
2022-10-22T08:25:59.155Z,9.88
2022-10-22T08:28:30.039Z,9.85
2022-10-22T08:30:58.518Z,9.83
2022-10-22T08:33:27.189Z,9.82
2022-10-22T08:35:55.740Z,9.81
2022-10-22T08:38:24.155Z,9.83
2022-10-22T08:41:23.573Z,9.84
2022-10-22T08:44:24.315Z,9.84
2022-10-22T08:47:04.125Z,9.84
2022-10-22T08:49:41.299Z,9.82
2022-10-22T08:52:17.363Z,9.80
2022-10-22T08:54:45.692Z,9.79
2022-10-22T08:57:32.658Z,9.79
2022-10-22T09:00:12.564Z,9.81
2022-10-22T09:03:02.108Z,9.83
2022-10-22T09:06:04.381Z,9.84
2022-10-22T09:08:32.950Z,9.85
2022-10-22T09:11:36.272Z,9.86
2022-10-22T09:14:05.780Z,9.87
2022-10-22T09:16:44.333Z,9.90
2022-10-22T09:19:42.026Z,9.93
2022-10-22T09:22:31.655Z,9.95
2022-10-22T09:25:24.838Z,9.95
2022-10-22T09:27:55.438Z,9.94
2022-10-22T09:30:29.848Z,9.94
2022-10-22T09:33:09.351Z,9.97
2022-10-22T09:36:00.445Z,10.01
2022-10-22T09:38:32.575Z,10.04
2022-10-22T09:41:06.271Z,10.07
2022-10-22T09:43:36.065Z,10.10
2022-10-22T09:46:08.211Z,10.12
2022-10-22T09:48:41.086Z,10.14
2022-10-22T09:51:17.596Z,10.15
2022-10-22T09:53:48.856Z,10.17
2022-10-22T09:56:27.480Z,10.18
2022-10-22T09:58:59.033Z,10.21
2022-10-22T10:01:34.530Z,10.21
2022-10-22T10:04:15.236Z,10.19
2022-10-22T10:06:46.236Z,10.16
2022-10-22T10:09:24.408Z,10.15
2022-10-22T10:12:13.197Z,10.14
2022-10-22T10:15:09.039Z,10.13
2022-10-22T10:17:46.597Z,10.14
2022-10-22T10:20:22.555Z,10.13
2022-10-22T10:22:56.654Z,10.11
2022-10-22T10:25:34.009Z,10.10
2022-10-22T10:28:16.511Z,10.10
2022-10-22T10:30:59.345Z,10.11
2022-10-22T10:33:48.950Z,10.11
2022-10-22T10:36:33.475Z,10.10
2022-10-22T10:39:20.472Z,10.09
2022-10-22T10:41:56.888Z,10.09
2022-10-22T10:44:51.612Z,10.09
2022-10-22T10:47:51.029Z,10.08
2022-10-22T10:50:28.753Z,10.06
2022-10-22T10:53:11.891Z,10.08
2022-10-22T10:56:23.248Z,10.09
2022-10-22T10:59:17.472Z,10.11
2022-10-22T11:02:09.925Z,10.13
2022-10-22T11:04:38.293Z,10.14
2022-10-22T11:07:16.890Z,10.14
2022-10-22T11:10:03.776Z,10.15
2022-10-22T11:12:43.152Z,10.15
2022-10-22T11:15:27.683Z,10.16
2022-10-22T11:18:02.549Z,10.19
2022-10-22T11:20:37.444Z,10.22
2022-10-22T11:23:20.138Z,10.20
2022-10-22T11:25:51.446Z,10.21
2022-10-22T11:28:35.490Z,10.20
2022-10-22T11:31:10.284Z,10.16
2022-10-22T11:33:57.308Z,10.14
2022-10-22T11:36:35.365Z,10.12
2022-10-22T11:39:05.559Z,10.12
2022-10-22T11:41:36.249Z,10.10
2022-10-22T11:44:26.709Z,10.07
2022-10-22T11:46:57.133Z,10.05
2022-10-22T11:49:43.992Z,10.03
2022-10-22T11:52:34.491Z,10.02
2022-10-22T11:55:04.795Z,10.01
2022-10-22T11:57:40.881Z,9.99
2022-10-22T12:00:37.014Z,9.99
2022-10-22T12:03:38.856Z,9.97
2022-10-22T12:06:13.525Z,9.96
2022-10-22T12:08:46.349Z,9.93
2022-10-22T12:11:20.749Z,9.90
2022-10-22T12:14:01.108Z,9.89
2022-10-22T12:16:59.291Z,9.89
2022-10-22T12:19:32.069Z,9.91
2022-10-22T12:22:27.374Z,9.92
2022-10-22T12:25:02.963Z,9.94
2022-10-22T12:27:41.130Z,9.96
2022-10-22T12:30:28.787Z,9.97
2022-10-22T12:33:01.170Z,10.00
2022-10-22T12:35:32.682Z,10.03
2022-10-22T12:38:09.834Z,10.07
2022-10-22T12:40:38.458Z,10.10
2022-10-22T12:43:17.238Z,10.12
2022-10-22T12:45:48.122Z,10.14
2022-10-22T12:48:24.455Z,10.18
2022-10-22T12:50:55.655Z,10.23
2022-10-22T12:53:57.604Z,10.26
2022-10-22T12:56:30.029Z,10.28
2022-10-22T12:59:01.791Z,10.25
2022-10-22T13:01:37.658Z,10.19
2022-10-22T13:04:34.942Z,10.16
2022-10-22T13:07:07.467Z,10.08
2022-10-22T13:09:41.262Z,10.04
2022-10-22T13:12:17.603Z,10.01
2022-10-22T13:14:47.983Z,9.98
2022-10-22T13:17:18.286Z,9.93
2022-10-22T13:19:56.108Z,9.88
2022-10-22T13:22:36.500Z,9.82
2022-10-22T13:25:18.264Z,9.75
2022-10-22T13:27:49.264Z,9.71
2022-10-22T13:30:37.832Z,9.69
2022-10-22T13:33:27.515Z,9.66
2022-10-22T13:35:57.954Z,9.62
2022-10-22T13:38:28.286Z,9.60
2022-10-22T13:40:57.365Z,9.57
2022-10-22T13:43:26.835Z,9.56
2022-10-22T13:46:00.289Z,9.55
2022-10-22T13:48:30.978Z,9.52
2022-10-22T13:50:59.533Z,9.50
2022-10-22T13:53:30.528Z,9.48
2022-10-22T13:55:58.903Z,9.48
2022-10-22T13:58:27.290Z,9.49
2022-10-22T14:01:03.394Z,9.50
2022-10-22T14:03:35.508Z,9.51
2022-10-22T14:06:03.780Z,9.53
2022-10-22T14:08:32.246Z,9.52
2022-10-22T14:11:00.791Z,9.54
2022-10-22T14:13:29.055Z,9.57
2022-10-22T14:15:57.500Z,9.59
2022-10-22T14:18:30.018Z,9.62
2022-10-22T14:21:01.263Z,9.65
2022-10-22T14:23:31.926Z,9.68
2022-10-22T14:26:01.922Z,9.69
2022-10-22T14:28:31.591Z,9.72
2022-10-22T14:31:12.494Z,9.74
2022-10-22T14:33:41.481Z,9.76
2022-10-22T14:36:13.999Z,9.80
2022-10-22T14:38:47.369Z,9.84
2022-10-22T14:41:23.658Z,9.85
2022-10-22T14:43:52.778Z,9.88
2022-10-22T14:46:20.845Z,9.91
2022-10-22T14:48:49.588Z,9.94
2022-10-22T14:51:23.122Z,9.93
2022-10-22T14:53:52.907Z,9.95
2022-10-22T14:56:24.811Z,9.96
2022-10-22T14:58:54.521Z,9.98
2022-10-22T15:01:23.521Z,9.98
2022-10-22T15:03:51.904Z,9.99
2022-10-22T15:06:20.456Z,10.01
2022-10-22T15:08:49.189Z,10.01
2022-10-22T15:11:17.998Z,10.01
2022-10-22T15:13:46.770Z,10.02
2022-10-22T15:16:17.357Z,10.02
2022-10-22T15:18:45.976Z,9.99
2022-10-22T15:21:20.271Z,9.98
2022-10-22T15:23:49.214Z,9.97
2022-10-22T15:26:18.697Z,9.96
2022-10-22T15:28:47.267Z,9.96
2022-10-22T15:31:16.537Z,9.97
2022-10-22T15:33:45.506Z,9.94
2022-10-22T15:36:16.828Z,9.96
2022-10-22T15:38:45.565Z,9.99
2022-10-22T15:41:14.548Z,10.00
2022-10-22T15:43:43.198Z,10.02
2022-10-22T15:46:17.964Z,10.05
2022-10-22T15:48:46.799Z,10.04
2022-10-22T15:51:17.638Z,10.04
2022-10-22T15:53:52.103Z,10.05
2022-10-22T15:56:21.156Z,10.06
2022-10-22T15:58:53.521Z,10.07
2022-10-22T16:01:22.033Z,10.07
2022-10-22T16:03:54.706Z,10.07
2022-10-22T16:06:23.237Z,10.09
2022-10-22T16:08:51.754Z,10.10
2022-10-22T16:11:20.164Z,10.12
2022-10-22T16:13:48.623Z,10.15
2022-10-22T16:16:17.048Z,10.18
2022-10-22T16:18:45.449Z,10.17
2022-10-22T16:21:18.385Z,10.15
2022-10-22T16:23:47.128Z,10.15
2022-10-22T16:26:16.447Z,10.19
2022-10-22T16:28:46.159Z,10.19
2022-10-22T16:31:17.678Z,10.21
2022-10-22T16:33:49.186Z,10.22
2022-10-22T16:36:21.115Z,10.24
2022-10-22T16:38:50.257Z,10.22
2022-10-22T16:41:35.957Z,10.20
2022-10-22T16:44:08.734Z,10.22
2022-10-22T16:46:40.387Z,10.22
2022-10-22T16:49:09.460Z,10.24
2022-10-22T16:51:38.274Z,10.24
2022-10-22T16:54:09.711Z,10.23
2022-10-22T16:56:40.468Z,10.22
2022-10-22T16:59:09.004Z,10.22
2022-10-22T17:01:40.945Z,10.23
2022-10-22T17:04:09.977Z,10.26
2022-10-22T17:06:38.308Z,10.27
2022-10-22T17:09:06.956Z,10.27
2022-10-22T17:11:38.066Z,10.26
2022-10-22T17:14:08.551Z,10.26
2022-10-22T17:16:36.913Z,10.26
2022-10-22T17:19:11.339Z,10.27
2022-10-22T17:21:40.394Z,10.26
2022-10-22T17:24:08.721Z,10.27
2022-10-22T17:26:38.302Z,10.28
2022-10-22T17:29:06.603Z,10.27
2022-10-22T17:31:38.265Z,10.24
2022-10-22T17:34:08.583Z,10.22
2022-10-22T17:36:38.242Z,10.18
2022-10-22T17:39:08.846Z,10.16
2022-10-22T17:41:38.754Z,10.14
2022-10-22T17:44:10.016Z,10.14
2022-10-22T17:46:39.657Z,10.16
2022-10-22T17:49:17.258Z,10.18
2022-10-22T17:51:46.012Z,10.21
2022-10-22T17:54:15.167Z,10.23
2022-10-22T17:56:43.592Z,10.24
2022-10-22T17:59:15.111Z,10.24
2022-10-22T18:01:46.521Z,10.23
2022-10-22T18:04:21.327Z,10.25
2022-10-22T18:06:50.009Z,10.26
2022-10-22T18:09:20.293Z,10.28
2022-10-22T18:11:50.699Z,10.32
2022-10-22T18:14:20.895Z,10.35
2022-10-22T18:16:50.173Z,10.41
2022-10-22T18:19:23.389Z,10.46
2022-10-22T18:21:51.914Z,10.50
2022-10-22T18:24:20.549Z,10.54
2022-10-22T18:26:49.014Z,10.57
2022-10-22T18:29:20.712Z,10.59
2022-10-22T18:31:49.634Z,10.62
2022-10-22T18:34:20.431Z,10.66
2022-10-22T18:36:51.679Z,10.69
2022-10-22T18:39:20.547Z,10.73
2022-10-22T18:41:48.877Z,10.73
2022-10-22T18:44:17.994Z,10.76
2022-10-22T18:46:46.236Z,10.78
2022-10-22T18:49:19.327Z,10.80
2022-10-22T18:51:53.784Z,10.82
2022-10-22T18:54:25.006Z,10.86
2022-10-22T18:56:58.065Z,10.89
2022-10-22T18:59:28.822Z,10.91
2022-10-22T19:02:01.263Z,10.91
2022-10-22T19:04:37.454Z,10.89
2022-10-22T19:07:05.957Z,10.94
2022-10-22T19:09:34.418Z,11.01
2022-10-22T19:12:02.964Z,11.04
2022-10-22T19:14:31.547Z,11.06
2022-10-22T19:17:00.230Z,11.09
2022-10-22T19:19:29.240Z,11.09
2022-10-22T19:22:00.666Z,11.09
2022-10-22T19:24:30.208Z,11.09
2022-10-22T19:26:58.808Z,11.07
2022-10-22T19:29:27.345Z,11.06
2022-10-22T19:31:55.907Z,11.04
2022-10-22T19:34:24.778Z,11.03
2022-10-22T19:36:53.198Z,11.03
2022-10-22T19:39:21.553Z,11.05
2022-10-22T19:41:50.161Z,11.05
2022-10-22T19:44:18.497Z,11.08
2022-10-22T19:46:46.748Z,11.08
2022-10-22T19:49:18.852Z,11.10
2022-10-22T19:51:50.263Z,11.10
2022-10-22T19:54:21.689Z,11.11
2022-10-22T19:56:50.271Z,11.09
2022-10-22T19:59:21.559Z,11.08
2022-10-22T20:01:50.284Z,11.08
2022-10-22T20:04:19.222Z,11.09
2022-10-22T20:06:47.634Z,11.12
2022-10-22T20:09:16.406Z,11.14
2022-10-22T20:11:45.258Z,11.21
2022-10-22T20:14:14.584Z,11.27
2022-10-22T20:16:43.410Z,11.31
2022-10-22T20:19:16.795Z,11.32
2022-10-22T20:21:46.355Z,11.32
2022-10-22T20:24:14.706Z,11.31
2022-10-22T20:26:42.948Z,11.30
2022-10-22T20:29:12.687Z,11.29
2022-10-22T20:31:40.939Z,11.28
2022-10-22T20:34:10.649Z,11.27
2022-10-22T20:36:39.380Z,11.23
2022-10-22T20:39:10.022Z,11.22
2022-10-22T20:41:40.220Z,11.18
2022-10-22T20:44:12.914Z,11.12
2022-10-22T20:46:41.452Z,11.07
2022-10-22T20:49:15.748Z,11.05
2022-10-22T20:51:44.474Z,11.06
2022-10-22T20:54:13.470Z,11.08
2022-10-22T20:56:43.188Z,11.09
2022-10-22T20:59:13.870Z,11.10
2022-10-22T21:01:53.278Z,11.10
2022-10-22T21:04:23.124Z,11.13
2022-10-22T21:06:53.037Z,11.17
2022-10-22T21:09:21.305Z,11.17
2022-10-22T21:11:49.548Z,11.18
2022-10-22T21:14:21.131Z,11.21
2022-10-22T21:16:51.259Z,11.22
2022-10-22T21:19:21.330Z,11.25
2022-10-22T21:21:50.465Z,11.27
2022-10-22T21:24:18.999Z,11.27
2022-10-22T21:26:47.192Z,11.27
2022-10-22T21:29:15.485Z,11.28
2022-10-22T21:31:44.288Z,11.26
2022-10-22T21:34:15.982Z,11.24
2022-10-22T21:39:14.200Z,11.21
2022-10-22T21:41:42.409Z,11.16
2022-10-22T21:44:11.090Z,11.11
2022-10-22T21:46:41.512Z,11.07
2022-10-22T21:49:09.872Z,11.03
2022-10-22T21:51:39.378Z,11.02
2022-10-22T21:54:08.066Z,11.01
2022-10-22T21:56:37.801Z,11.01
2022-10-22T21:59:07.613Z,11.02
2022-10-22T22:01:36.741Z,11.05
2022-10-22T22:04:05.294Z,11.10
2022-10-22T22:06:34.531Z,11.13
2022-10-22T22:09:04.857Z,11.22
2022-10-22T22:11:33.558Z,11.32
2022-10-22T22:14:02.021Z,11.41
2022-10-22T22:16:33.239Z,11.54
2022-10-22T22:19:05.425Z,11.66
2022-10-22T22:21:34.696Z,11.76
2022-10-22T22:24:03.106Z,11.82
2022-10-22T22:26:31.532Z,11.87
2022-10-22T22:29:01.233Z,11.91
2022-10-22T22:31:32.167Z,11.95
2022-10-22T22:34:02.148Z,11.99
2022-10-22T22:36:44.383Z,12.04
2022-10-22T22:39:17.093Z,12.10
2022-10-22T22:41:45.611Z,12.17
2022-10-22T22:44:14.905Z,12.22
2022-10-22T22:46:44.303Z,12.26
2022-10-22T22:49:14.640Z,12.31
2022-10-22T22:51:44.440Z,12.35
2022-10-22T22:54:12.885Z,12.39
2022-10-22T22:56:42.057Z,12.43
2022-10-22T22:59:12.258Z,12.45
2022-10-22T23:01:41.514Z,12.47
2022-10-22T23:04:20.015Z,12.49
2022-10-22T23:06:48.375Z,12.52
2022-10-22T23:11:52.580Z,12.47
2022-10-22T23:14:21.511Z,12.44
2022-10-22T23:16:52.408Z,12.40
2022-10-22T23:19:22.874Z,12.33
2022-10-22T23:21:54.416Z,12.30
2022-10-22T23:24:26.562Z,12.27
2022-10-22T23:26:56.812Z,12.24
2022-10-22T23:29:28.108Z,12.23
2022-10-22T23:31:57.009Z,12.20
2022-10-22T23:34:27.608Z,12.17
2022-10-22T23:36:57.210Z,12.14
2022-10-22T23:39:28.331Z,12.11
2022-10-22T23:41:57.848Z,12.08
2022-10-22T23:44:26.730Z,12.02
2022-10-22T23:46:56.250Z,11.97
2022-10-22T23:49:24.847Z,11.96
2022-10-22T23:51:53.235Z,11.98
2022-10-22T23:54:21.653Z,12.00
2022-10-22T23:56:49.971Z,12.05
2022-10-22T23:59:18.186Z,12.09
